createdAt,value
2023-04-13T00:00:42.261Z,6.03
2023-04-13T00:03:12.649Z,5.98
2023-04-13T00:05:40.439Z,6.01
2023-04-13T00:08:08.276Z,6.01
2023-04-13T00:10:36.620Z,6.02
2023-04-13T00:13:05.396Z,5.99
2023-04-13T00:15:36.969Z,5.99
2023-04-13T00:18:04.631Z,5.99
2023-04-13T00:20:31.722Z,5.98
2023-04-13T00:22:58.772Z,5.93
2023-04-13T00:25:25.928Z,5.84
2023-04-13T00:27:55.708Z,5.72
2023-04-13T00:30:22.933Z,5.69
2023-04-13T00:32:50.326Z,5.67
2023-04-13T00:35:24.985Z,5.65
2023-04-13T00:37:53.088Z,5.66
2023-04-13T00:40:20.528Z,5.65
2023-04-13T00:42:49.584Z,5.53
2023-04-13T00:45:21.139Z,5.53
2023-04-13T00:47:50.857Z,5.55
2023-04-13T00:50:21.260Z,5.56
2023-04-13T00:52:49.310Z,5.51
2023-04-13T00:55:21.255Z,5.42
2023-04-13T00:57:50.486Z,5.37
2023-04-13T01:00:18.826Z,5.40
2023-04-13T01:02:46.040Z,5.39
2023-04-13T01:05:15.759Z,5.44
2023-04-13T01:07:56.242Z,5.40
2023-04-13T01:10:52.544Z,5.36
2023-04-13T01:13:26.529Z,5.37
2023-04-13T01:16:16.859Z,5.39
2023-04-13T01:21:35.009Z,5.35
2023-04-13T01:24:17.885Z,5.33
2023-04-13T01:27:15.367Z,5.37
2023-04-13T01:29:45.560Z,5.41
2023-04-13T01:32:17.546Z,5.46
2023-04-13T01:34:45.826Z,5.39
2023-04-13T01:37:13.217Z,5.36
2023-04-13T01:39:41.285Z,5.41
2023-04-13T01:42:52.603Z,5.41
2023-04-13T01:45:27.632Z,5.46
2023-04-13T01:48:31.740Z,5.54
2023-04-13T01:51:20.360Z,5.60
2023-04-13T01:53:57.343Z,5.63
2023-04-13T01:56:26.657Z,5.69
2023-04-13T01:59:00.196Z,5.69
2023-04-13T02:01:29.209Z,5.76
2023-04-13T02:03:58.893Z,5.81
2023-04-13T02:06:30.994Z,5.82
2023-04-13T02:08:59.472Z,5.78
2023-04-13T02:11:28.624Z,5.83
2023-04-13T02:13:58.275Z,5.75
2023-04-13T02:16:25.774Z,5.75
2023-04-13T02:18:52.952Z,5.64
2023-04-13T02:21:22.237Z,5.53
2023-04-13T02:23:52.613Z,5.40
2023-04-13T02:26:22.058Z,5.41
2023-04-13T02:28:51.367Z,5.38
2023-04-13T02:31:20.025Z,5.27
2023-04-13T02:33:47.725Z,5.23
2023-04-13T02:36:17.632Z,5.21
2023-04-13T02:38:54.812Z,5.19
2023-04-13T02:41:29.768Z,5.26
2023-04-13T02:43:57.928Z,5.24
2023-04-13T02:46:28.916Z,5.12
2023-04-13T02:49:06.564Z,5.05
2023-04-13T02:51:40.296Z,4.96
2023-04-13T02:54:11.380Z,5.07
2023-04-13T02:56:41.363Z,5.08
2023-04-13T02:59:09.219Z,4.99
2023-04-13T03:01:36.660Z,4.95
2023-04-13T03:04:04.410Z,4.84
2023-04-13T03:06:31.797Z,4.87
2023-04-13T03:09:01.814Z,4.92
2023-04-13T03:11:36.715Z,4.96
2023-04-13T03:14:21.213Z,4.88
2023-04-13T03:16:54.707Z,4.83
2023-04-13T03:19:26.607Z,4.85
2023-04-13T03:21:54.207Z,4.96
2023-04-13T03:24:28.611Z,4.94
2023-04-13T03:26:59.562Z,4.91
2023-04-13T03:29:33.917Z,4.96
2023-04-13T03:32:01.436Z,5.02
2023-04-13T03:34:31.924Z,5.02
2023-04-13T03:37:02.933Z,4.93
2023-04-13T03:39:30.264Z,4.95
2023-04-13T03:41:58.146Z,4.98
2023-04-13T03:44:26.357Z,5.07
2023-04-13T03:46:53.706Z,5.16
2023-04-13T03:49:30.618Z,5.26
2023-04-13T03:51:59.197Z,5.38
2023-04-13T03:54:28.796Z,5.45
2023-04-13T03:57:00.747Z,5.62
2023-04-13T03:59:30.745Z,5.50
2023-04-13T04:02:18.168Z,5.04
2023-04-13T04:04:46.703Z,4.97
2023-04-13T04:07:16.536Z,5.02
2023-04-13T04:09:44.122Z,5.02
2023-04-13T04:12:13.757Z,5.17
2023-04-13T04:14:43.223Z,5.22
2023-04-13T04:17:19.130Z,5.37
2023-04-13T04:19:46.886Z,5.49
2023-04-13T04:22:15.800Z,5.66
2023-04-13T04:24:43.270Z,5.75
2023-04-13T04:27:42.678Z,5.87
2023-04-13T04:30:11.049Z,5.91
2023-04-13T04:32:40.787Z,6.46
2023-04-13T04:35:14.406Z,6.80
2023-04-13T04:37:51.287Z,6.61
2023-04-13T04:41:28.606Z,6.99
2023-04-13T04:44:03.592Z,7.02
2023-04-13T04:46:38.801Z,7.36
2023-04-13T04:49:11.323Z,7.56
2023-04-13T04:51:39.577Z,7.40
2023-04-13T04:54:07.579Z,7.20
2023-04-13T04:56:34.887Z,7.30
2023-04-13T04:59:02.065Z,7.48
2023-04-13T05:01:43.413Z,7.20
2023-04-13T05:04:13.148Z,7.51
2023-04-13T05:07:17.850Z,7.64
2023-04-13T05:09:45.768Z,7.80
2023-04-13T05:12:13.100Z,7.74
2023-04-13T05:14:43.314Z,7.87
2023-04-13T05:17:12.887Z,7.91
2023-04-13T05:19:41.174Z,7.98
2023-04-13T05:22:16.228Z,8.03
2023-04-13T05:24:50.169Z,8.09
2023-04-13T05:27:18.194Z,8.00
2023-04-13T05:29:47.549Z,8.08
2023-04-13T05:32:18.522Z,8.13
2023-04-13T05:34:47.693Z,8.19
2023-04-13T05:37:20.794Z,8.47
2023-04-13T05:39:47.976Z,8.68
2023-04-13T05:42:17.976Z,8.99
2023-04-13T05:44:45.869Z,9.28
2023-04-13T05:47:14.586Z,9.52
2023-04-13T05:49:44.580Z,9.62
2023-04-13T05:52:14.934Z,9.46
2023-04-13T05:54:45.158Z,9.80
2023-04-13T05:57:12.240Z,9.95
2023-04-13T05:59:45.073Z,10.24
2023-04-13T06:02:14.930Z,10.43
2023-04-13T06:04:43.546Z,10.73
2023-04-13T06:10:44.592Z,10.05
2023-04-13T06:13:12.559Z,9.94
2023-04-13T06:15:40.611Z,9.88
2023-04-13T06:18:07.823Z,9.91
2023-04-13T06:20:35.179Z,10.11
2023-04-13T06:23:02.402Z,10.23
2023-04-13T06:25:31.068Z,10.34
2023-04-13T06:28:01.196Z,10.05
2023-04-13T06:30:28.899Z,9.86
2023-04-13T06:34:08.439Z,10.11
2023-04-13T06:36:40.642Z,10.19
2023-04-13T06:39:10.522Z,10.54
2023-04-13T06:41:39.688Z,10.52
2023-04-13T06:47:05.936Z,10.63
2023-04-13T06:49:34.207Z,10.56
2023-04-13T06:52:02.598Z,10.60
2023-04-13T06:54:30.569Z,10.58
2023-04-13T06:57:03.989Z,10.93
2023-04-13T06:59:31.278Z,11.12
2023-04-13T07:01:58.525Z,11.48
2023-04-13T07:04:29.119Z,11.25
2023-04-13T07:06:58.185Z,11.35
2023-04-13T07:09:25.980Z,11.22
2023-04-13T07:11:53.556Z,11.16
2023-04-13T07:14:21.325Z,11.35
2023-04-13T07:16:48.995Z,11.40
2023-04-13T07:19:17.094Z,11.23
2023-04-13T07:21:44.286Z,11.33
2023-04-13T07:24:11.400Z,11.67
2023-04-13T07:26:42.316Z,11.93
2023-04-13T07:29:13.560Z,12.12
2023-04-13T07:31:45.006Z,11.79
2023-04-13T07:34:43.674Z,11.76
2023-04-13T07:37:11.324Z,11.88
2023-04-13T07:39:38.751Z,12.12
2023-04-13T07:42:06.157Z,12.33
2023-04-13T07:44:41.300Z,12.50
2023-04-13T07:47:09.039Z,12.30
2023-04-13T07:49:39.282Z,12.21
2023-04-13T07:52:13.075Z,12.46
2023-04-13T07:54:41.444Z,12.85
2023-04-13T07:57:10.651Z,13.06
2023-04-13T07:59:43.650Z,12.85
2023-04-13T08:02:11.413Z,12.58
2023-04-13T08:04:41.679Z,12.72
2023-04-13T08:07:09.420Z,12.82
2023-04-13T08:09:39.356Z,13.03
2023-04-13T08:12:08.381Z,13.03
2023-04-13T08:14:40.222Z,13.11
2023-04-13T08:17:08.123Z,13.13
2023-04-13T08:19:35.574Z,13.32
2023-04-13T08:22:05.109Z,13.45
2023-04-13T08:24:32.248Z,13.60
2023-04-13T08:26:59.432Z,14.03
2023-04-13T08:29:27.857Z,13.72
2023-04-13T08:31:57.098Z,13.85
2023-04-13T08:34:25.110Z,13.84
2023-04-13T08:36:55.189Z,13.92
2023-04-13T08:39:25.311Z,14.22
2023-04-13T08:41:52.465Z,14.54
2023-04-13T08:44:21.491Z,14.88
2023-04-13T08:46:52.592Z,14.63
2023-04-13T08:49:27.462Z,14.90
2023-04-13T08:52:16.736Z,15.23
2023-04-13T08:54:47.833Z,14.93
2023-04-13T08:57:21.435Z,15.32
2023-04-13T08:59:52.516Z,15.99
2023-04-13T09:02:28.634Z,16.11
2023-04-13T09:05:06.320Z,15.82
2023-04-13T09:07:36.941Z,16.37
2023-04-13T09:10:10.754Z,16.69
2023-04-13T09:12:41.250Z,16.89
2023-04-13T09:15:11.503Z,17.21
2023-04-13T09:17:46.677Z,16.95
2023-04-13T09:20:22.979Z,16.65
2023-04-13T09:22:51.654Z,16.78
2023-04-13T09:25:26.318Z,16.60
2023-04-13T09:27:54.755Z,16.81
2023-04-13T09:30:26.314Z,16.40
2023-04-13T09:33:07.154Z,16.52
2023-04-13T09:35:35.590Z,17.20
2023-04-13T09:38:03.270Z,17.35
2023-04-13T09:40:31.040Z,16.82
2023-04-13T09:43:00.955Z,17.17
2023-04-13T10:18:12.031Z,17.32
2023-04-13T10:20:40.515Z,17.96
2023-04-13T10:23:08.196Z,18.30
2023-04-13T10:25:38.334Z,18.75
2023-04-13T10:28:07.220Z,19.09
2023-04-13T10:30:34.314Z,19.18
2023-04-13T10:33:10.933Z,18.37
2023-04-13T10:35:39.473Z,18.40
2023-04-13T10:38:09.377Z,18.94
2023-04-13T10:40:45.092Z,18.58
2023-04-13T10:43:12.722Z,19.19
2023-04-13T10:45:39.943Z,19.02
2023-04-13T10:48:07.753Z,18.41
2023-04-13T10:50:34.999Z,18.37
2023-04-13T10:53:09.912Z,19.08
2023-04-13T10:55:37.053Z,18.76
2023-04-13T10:58:15.307Z,18.91
2023-04-13T11:00:46.749Z,18.94
2023-04-13T11:03:16.783Z,19.43
2023-04-13T11:05:46.199Z,19.58
2023-04-13T11:08:21.159Z,19.63
2023-04-13T11:10:56.050Z,19.46
2023-04-13T11:13:26.905Z,19.19
2023-04-13T11:16:14.554Z,18.82
2023-04-13T11:18:41.709Z,19.34
2023-04-13T11:21:18.378Z,19.74
2023-04-13T11:23:54.480Z,19.42
2023-04-13T11:26:34.384Z,19.47
2023-04-13T11:29:03.756Z,19.45
2023-04-13T11:31:42.053Z,19.44
2023-04-13T11:34:14.026Z,19.80
2023-04-13T11:36:43.280Z,19.55
2023-04-13T11:39:10.986Z,18.67
2023-04-13T11:41:44.634Z,19.31
2023-04-13T11:44:12.572Z,19.40
2023-04-13T11:46:39.791Z,19.68
2023-04-13T11:49:07.434Z,19.42
2023-04-13T11:51:35.250Z,19.27
2023-04-13T11:54:02.944Z,19.47
2023-04-13T11:56:31.226Z,19.80
2023-04-13T11:58:58.863Z,19.85
2023-04-13T12:01:31.055Z,19.22
2023-04-13T12:04:15.080Z,19.23
2023-04-13T12:06:46.402Z,19.18
2023-04-13T12:09:17.757Z,19.56
2023-04-13T12:11:54.343Z,19.70
2023-04-13T12:19:28.587Z,19.85
2023-04-13T12:21:58.008Z,18.99
2023-04-13T12:24:39.302Z,19.75
2023-04-13T12:29:38.857Z,20.10
2023-04-13T12:32:14.384Z,20.02
2023-04-13T12:34:43.563Z,20.25
2023-04-13T12:37:11.967Z,19.99
2023-04-13T12:39:39.358Z,20.00
2023-04-13T12:42:06.610Z,20.63
2023-04-13T12:44:34.536Z,20.08
2023-04-13T12:47:02.574Z,19.62
2023-04-13T12:49:30.305Z,20.08
2023-04-13T12:51:57.713Z,19.97
2023-04-13T12:54:25.005Z,19.90
2023-04-13T12:56:52.283Z,19.64
2023-04-13T12:59:22.164Z,19.71
2023-04-13T13:01:49.931Z,19.13
2023-04-13T13:04:17.701Z,18.88
2023-04-13T13:06:44.955Z,18.20
2023-04-13T13:09:12.083Z,18.61
2023-04-13T13:11:39.287Z,18.56
2023-04-13T13:15:16.725Z,18.36
2023-04-13T13:17:44.280Z,18.50
2023-04-13T13:20:13.491Z,18.26
2023-04-13T13:22:40.688Z,17.95
2023-04-13T13:25:08.866Z,17.94
2023-04-13T13:28:10.455Z,17.52
2023-04-13T13:30:27.217Z,17.43
2023-04-13T13:32:54.498Z,17.51
2023-04-13T13:35:22.052Z,17.28
2023-04-13T13:37:49.114Z,17.35
2023-04-13T13:40:49.104Z,17.34
2023-04-13T13:43:21.510Z,17.27
2023-04-13T13:45:49.026Z,17.54
2023-04-13T13:48:16.714Z,17.62
2023-04-13T13:50:56.103Z,17.47
2023-04-13T13:53:25.292Z,17.23
2023-04-13T13:55:53.143Z,17.01
2023-04-13T13:58:20.235Z,17.02
2023-04-13T14:00:47.441Z,16.89
2023-04-13T14:03:16.621Z,16.95
2023-04-13T14:05:43.898Z,16.57
2023-04-13T14:08:11.402Z,16.53
2023-04-13T14:10:38.535Z,16.72
2023-04-13T14:13:06.344Z,16.81
2023-04-13T14:15:33.735Z,16.52
2023-04-13T14:20:32.504Z,16.56
2023-04-13T14:22:59.657Z,16.58
2023-04-13T14:25:26.877Z,16.63
2023-04-13T14:27:54.017Z,16.44
2023-04-13T14:30:23.162Z,16.39
2023-04-13T14:32:52.141Z,16.64
2023-04-13T14:35:20.210Z,16.62
2023-04-13T14:37:47.695Z,16.87
2023-04-13T14:40:17.224Z,16.65
2023-04-13T14:42:45.776Z,16.52
2023-04-13T14:45:13.503Z,16.86
2023-04-13T14:47:41.188Z,17.03
2023-04-13T14:50:09.960Z,16.83
2023-04-13T14:52:37.199Z,16.72
2023-04-13T14:55:04.939Z,16.55
2023-04-13T14:57:32.552Z,16.87
2023-04-13T14:59:59.577Z,16.92
2023-04-13T15:02:29.010Z,16.59
2023-04-13T15:04:56.421Z,15.86
2023-04-13T15:07:30.031Z,15.78
2023-04-13T15:09:59.011Z,15.64
2023-04-13T15:12:26.213Z,15.48
2023-04-13T15:14:53.449Z,15.27
2023-04-13T15:17:21.244Z,15.00
2023-04-13T15:19:48.801Z,14.90
2023-04-13T15:22:16.112Z,15.11
2023-04-13T15:24:43.195Z,14.88
2023-04-13T15:27:10.544Z,14.71
2023-04-13T15:29:37.739Z,14.36
2023-04-13T15:32:05.394Z,14.20
2023-04-13T15:34:32.509Z,14.09
2023-04-13T15:36:59.701Z,14.14
2023-04-13T15:39:27.784Z,13.99
2023-04-13T15:41:55.331Z,13.78
2023-04-13T15:44:22.433Z,13.70
2023-04-13T15:46:49.612Z,13.52
2023-04-13T15:49:16.679Z,13.51
2023-04-13T15:52:15.920Z,13.69
2023-04-13T15:54:43.009Z,13.63
2023-04-13T15:57:10.351Z,13.54
2023-04-13T15:59:37.552Z,13.30
2023-04-13T16:02:04.784Z,13.16
2023-04-13T16:04:32.649Z,13.14
2023-04-13T16:09:30.858Z,13.25
2023-04-13T16:11:57.963Z,12.89
2023-04-13T16:14:25.493Z,12.88
2023-04-13T16:17:00.006Z,12.96
2023-04-13T16:19:29.053Z,12.89
2023-04-13T16:21:56.148Z,12.94
2023-04-13T16:24:23.249Z,12.66
2023-04-13T16:26:50.365Z,12.49
2023-04-13T16:29:18.021Z,12.45
2023-04-13T16:31:48.370Z,12.33
2023-04-13T16:34:25.442Z,12.40
2023-04-13T16:36:53.522Z,12.34
2023-04-13T16:39:21.970Z,12.32
2023-04-13T16:41:49.183Z,12.14
2023-04-13T16:44:16.534Z,12.12
2023-04-13T16:46:43.733Z,12.07
2023-04-13T16:49:11.116Z,12.16
2023-04-13T16:51:38.244Z,11.91
2023-04-13T16:54:11.720Z,11.83
2023-04-13T16:56:38.896Z,11.75
2023-04-13T16:59:06.883Z,11.83
2023-04-13T17:01:37.159Z,11.85
2023-04-13T17:04:05.952Z,11.93
2023-04-13T17:06:37.503Z,11.82
2023-04-13T17:09:05.742Z,11.61
2023-04-13T17:11:33.037Z,11.56
2023-04-13T17:14:00.588Z,11.63
2023-04-13T17:16:29.608Z,11.73
2023-04-13T17:18:57.151Z,11.64
2023-04-13T17:21:24.770Z,11.47
2023-04-13T17:23:51.931Z,11.57
2023-04-13T17:26:19.174Z,11.54
2023-04-13T17:28:46.752Z,11.68
2023-04-13T17:31:14.710Z,11.65
2023-04-13T17:33:41.920Z,11.60
2023-04-13T17:36:09.119Z,11.51
2023-04-13T17:38:36.486Z,11.30
2023-04-13T17:41:04.284Z,11.33
2023-04-13T17:43:31.647Z,11.50
2023-04-13T17:45:58.890Z,11.58
2023-04-13T17:48:26.333Z,11.60
2023-04-13T17:50:53.588Z,11.48
2023-04-13T17:53:20.764Z,11.45
2023-04-13T17:55:47.876Z,11.54
2023-04-13T17:58:14.966Z,11.69
2023-04-13T18:00:42.106Z,11.61
2023-04-13T18:03:09.749Z,11.55
2023-04-13T18:05:37.134Z,11.40
2023-04-13T18:08:04.397Z,11.48
2023-04-13T18:10:31.525Z,11.68
2023-04-13T18:13:01.688Z,11.78
2023-04-13T18:15:28.868Z,11.65
2023-04-13T18:17:56.057Z,11.53
2023-04-13T18:20:23.266Z,11.47
2023-04-13T18:22:50.449Z,11.58
2023-04-13T18:25:17.621Z,11.76
2023-04-13T18:27:44.749Z,11.78
2023-04-13T18:30:12.946Z,11.78
2023-04-13T18:32:40.122Z,11.55
2023-04-13T18:35:07.887Z,11.69
2023-04-13T18:37:35.032Z,11.76
2023-04-13T18:40:04.535Z,11.78
2023-04-13T18:42:33.539Z,11.66
2023-04-13T18:46:10.098Z,11.45
2023-04-13T18:48:37.301Z,11.39
2023-04-13T18:51:04.585Z,11.48
2023-04-13T18:53:31.852Z,11.68
2023-04-13T18:55:59.169Z,11.25
2023-04-13T18:58:27.312Z,11.45
2023-04-13T19:01:00.095Z,11.40
2023-04-13T19:03:28.030Z,11.45
2023-04-13T19:05:56.393Z,11.37
2023-04-13T19:08:23.631Z,11.31
2023-04-13T19:10:51.619Z,11.48
2023-04-13T19:13:18.779Z,11.18
2023-04-13T19:15:46.865Z,11.27
2023-04-13T19:18:14.358Z,11.39
2023-04-13T19:20:41.497Z,11.24
2023-04-13T19:23:08.715Z,11.47
2023-04-13T19:25:35.926Z,11.11
2023-04-13T19:28:03.209Z,11.32
2023-04-13T19:30:30.601Z,11.39
2023-04-13T19:32:58.636Z,11.49
2023-04-13T19:35:26.417Z,11.51
2023-04-13T19:37:53.738Z,11.53
2023-04-13T19:40:23.260Z,11.47
2023-04-13T19:42:50.496Z,11.39
2023-04-13T19:45:17.877Z,11.38
2023-04-13T19:47:45.499Z,11.63
2023-04-13T19:50:14.464Z,11.45
2023-04-13T19:52:42.531Z,11.53
2023-04-13T19:55:11.034Z,11.45
2023-04-13T19:57:42.186Z,11.48
2023-04-13T20:00:20.792Z,11.52
2023-04-13T20:02:50.857Z,11.32
2023-04-13T20:05:19.877Z,10.65
2023-04-13T20:07:47.152Z,11.12
2023-04-13T20:10:14.360Z,11.04
2023-04-13T20:12:41.460Z,11.32
2023-04-13T20:15:09.016Z,11.43
2023-04-13T20:17:36.269Z,11.47
2023-04-13T20:20:04.245Z,11.55
2023-04-13T20:22:31.320Z,11.59
2023-04-13T20:24:58.434Z,11.63
2023-04-13T20:27:25.750Z,11.80
2023-04-13T20:29:53.162Z,11.94
2023-04-13T20:32:20.579Z,11.87
2023-04-13T20:34:49.481Z,11.81
2023-04-13T20:37:18.652Z,11.76
2023-04-13T20:39:53.101Z,11.83
2023-04-13T20:42:22.527Z,11.99
2023-04-13T20:44:57.644Z,12.00
2023-04-13T20:47:28.845Z,11.44
2023-04-13T20:49:57.650Z,11.77
2023-04-13T20:52:26.050Z,11.79
2023-04-13T20:54:54.826Z,11.73
2023-04-13T20:57:22.381Z,11.94
2023-04-13T20:59:49.807Z,11.83
2023-04-13T21:02:17.204Z,11.55
2023-04-13T21:04:44.440Z,11.39
2023-04-13T21:07:14.074Z,11.39
2023-04-13T21:09:41.718Z,11.67
2023-04-13T21:12:09.021Z,11.67
2023-04-13T21:14:36.230Z,11.62
2023-04-13T21:17:03.365Z,11.44
2023-04-13T21:19:30.553Z,11.32
2023-04-13T21:23:07.028Z,11.41
2023-04-13T21:25:34.151Z,11.51
2023-04-13T21:28:02.898Z,11.43
2023-04-13T21:30:30.050Z,11.29
2023-04-13T21:32:57.213Z,11.17
2023-04-13T21:35:24.384Z,11.25
2023-04-13T21:37:51.499Z,11.45
2023-04-13T21:40:18.735Z,11.39
2023-04-13T21:42:45.941Z,11.21
2023-04-13T21:45:13.498Z,11.09
2023-04-13T21:47:40.679Z,11.15
2023-04-13T21:50:08.254Z,11.34
2023-04-13T21:52:35.517Z,11.25
2023-04-13T21:55:03.516Z,11.25
2023-04-13T21:57:30.712Z,11.04
2023-04-13T21:59:57.902Z,11.06
2023-04-13T22:02:25.108Z,10.90
2023-04-13T22:04:52.274Z,11.26
2023-04-13T22:07:25.883Z,11.21
2023-04-13T22:09:59.653Z,11.10
2023-04-13T22:12:26.895Z,10.87
2023-04-13T22:14:54.273Z,10.84
2023-04-13T22:17:21.489Z,11.02
2023-04-13T22:19:48.573Z,11.09
2023-04-13T22:22:15.672Z,11.08
2023-04-13T22:24:42.783Z,10.87
2023-04-13T22:27:09.860Z,10.87
2023-04-13T22:29:37.000Z,10.81
2023-04-13T22:32:04.100Z,11.18
2023-04-13T22:34:31.515Z,11.10
2023-04-13T22:36:58.794Z,11.05
2023-04-13T22:39:25.921Z,10.71
2023-04-13T22:41:53.077Z,10.74
2023-04-13T22:44:20.181Z,10.87
2023-04-13T22:46:47.271Z,11.05
2023-04-13T22:49:14.397Z,11.03
2023-04-13T22:51:41.605Z,10.87
2023-04-13T22:54:08.701Z,10.73
2023-04-13T22:56:35.855Z,10.74
2023-04-13T22:59:03.331Z,11.07
2023-04-13T23:01:30.748Z,11.05
2023-04-13T23:03:58.134Z,10.90
2023-04-13T23:06:25.472Z,10.74
2023-04-13T23:08:52.622Z,10.78
2023-04-13T23:11:19.654Z,11.03
2023-04-13T23:13:46.924Z,11.01
2023-04-13T23:16:14.097Z,10.95
2023-04-13T23:18:41.285Z,10.78
2023-04-13T23:21:12.653Z,10.65
2023-04-13T23:23:40.192Z,10.56
2023-04-13T23:26:07.490Z,10.87
2023-04-13T23:28:34.619Z,10.85
2023-04-13T23:31:09.052Z,10.80
2023-04-13T23:33:36.527Z,10.61
2023-04-13T23:36:35.383Z,10.51
2023-04-13T23:39:02.759Z,10.68
2023-04-13T23:41:29.981Z,10.78
2023-04-13T23:43:57.030Z,10.70
2023-04-13T23:46:25.002Z,10.63
2023-04-13T23:48:52.080Z,10.50
2023-04-13T23:51:19.151Z,10.53
2023-04-13T23:53:46.534Z,10.82
2023-04-13T23:56:13.616Z,10.77
2023-04-13T23:58:40.779Z,10.68
